createdAt,value
2023-02-24T00:02:20.669Z,40.52
2023-02-24T00:04:53.747Z,40.45
2023-02-24T00:07:25.031Z,40.19
2023-02-24T00:09:55.635Z,40.37
2023-02-24T00:12:25.902Z,40.50
2023-02-24T00:14:56.618Z,40.27
2023-02-24T00:17:28.357Z,40.58
2023-02-24T00:20:00.662Z,40.69
2023-02-24T00:22:31.361Z,40.64
2023-02-24T00:25:04.950Z,40.48
2023-02-24T00:27:36.523Z,40.40
2023-02-24T00:30:08.447Z,40.19
2023-02-24T00:32:39.899Z,40.21
2023-02-24T00:35:13.701Z,40.40
2023-02-24T00:37:44.467Z,40.76
2023-02-24T00:40:16.964Z,40.24
2023-02-24T00:42:49.175Z,40.62
2023-02-24T00:45:19.950Z,40.43
2023-02-24T00:47:50.746Z,40.23
2023-02-24T00:50:25.208Z,40.82
2023-02-24T00:52:55.880Z,40.33
2023-02-24T00:55:28.353Z,40.47
2023-02-24T00:57:59.125Z,40.75
2023-02-24T01:00:36.421Z,40.36
2023-02-24T01:03:07.539Z,40.68
2023-02-24T01:05:41.859Z,40.28
2023-02-24T01:08:14.893Z,40.73
2023-02-24T01:11:05.544Z,40.28
2023-02-24T01:13:34.440Z,40.49
2023-02-24T01:16:05.211Z,40.45
2023-02-24T01:18:36.277Z,40.33
2023-02-24T01:21:09.675Z,40.64
2023-02-24T01:23:40.602Z,40.61
2023-02-24T01:26:11.189Z,40.90
2023-02-24T01:28:42.665Z,40.35
2023-02-24T01:31:13.321Z,40.42
2023-02-24T01:33:47.396Z,40.62
2023-02-24T01:36:26.226Z,40.73
2023-02-24T01:38:56.635Z,40.79
2023-02-24T01:41:28.294Z,40.58
2023-02-24T01:44:03.747Z,40.99
2023-02-24T01:46:36.891Z,40.76
2023-02-24T01:49:17.216Z,40.83
2023-02-24T01:51:54.916Z,40.51
2023-02-24T01:54:31.289Z,40.90
2023-02-24T01:57:02.482Z,40.81
2023-02-24T01:59:37.774Z,40.55
2023-02-24T02:02:10.722Z,40.55
2023-02-24T02:04:48.152Z,40.76
2023-02-24T02:07:25.015Z,40.74
2023-02-24T02:09:57.289Z,40.87
2023-02-24T02:12:29.700Z,40.53
2023-02-24T02:15:01.375Z,40.48
2023-02-24T02:17:44.046Z,40.62
2023-02-24T02:21:16.774Z,40.52
2023-02-24T02:24:22.099Z,40.93
2023-02-24T02:27:38.939Z,40.74
2023-02-24T02:30:58.432Z,41.04
2023-02-24T02:34:17.795Z,40.82
2023-02-24T02:37:04.171Z,40.97
2023-02-24T02:39:50.928Z,40.60
2023-02-24T02:42:33.100Z,40.93
2023-02-24T02:45:12.020Z,41.21
2023-02-24T02:47:52.084Z,41.02
2023-02-24T02:50:32.137Z,41.10
2023-02-24T02:53:08.034Z,40.66
2023-02-24T02:55:45.039Z,40.89
2023-02-24T02:58:22.188Z,41.00
2023-02-24T03:01:03.039Z,40.78
2023-02-24T03:03:40.285Z,41.15
2023-02-24T03:06:18.265Z,40.93
2023-02-24T03:08:57.977Z,40.65
2023-02-24T03:11:33.026Z,41.23
2023-02-24T03:14:03.875Z,40.99
2023-02-24T03:16:36.690Z,41.07
2023-02-24T03:19:11.857Z,41.32
2023-02-24T03:26:56.094Z,41.31
2023-02-24T03:29:37.830Z,40.94
2023-02-24T03:34:56.393Z,40.95
2023-02-24T03:37:33.988Z,41.32
2023-02-24T03:40:12.104Z,41.21
2023-02-24T03:42:48.453Z,41.19
2023-02-24T03:45:23.497Z,41.52
2023-02-24T03:47:56.693Z,41.24
2023-02-24T03:50:32.461Z,41.42
2023-02-24T03:53:22.785Z,41.02
2023-02-24T03:56:06.573Z,41.29
2023-02-24T03:58:58.280Z,40.99
2023-02-24T04:01:42.866Z,41.33
2023-02-24T04:04:28.027Z,41.38
2023-02-24T04:07:06.338Z,41.29
2023-02-24T04:09:50.736Z,41.39
2023-02-24T04:12:29.259Z,41.28
2023-02-24T04:15:10.071Z,41.41
2023-02-24T04:17:47.672Z,41.15
2023-02-24T04:20:21.917Z,40.95
2023-02-24T04:23:00.136Z,41.33
2023-02-24T04:25:35.055Z,41.10
2023-02-24T04:28:09.426Z,41.12
2023-02-24T04:30:44.308Z,41.26
2023-02-24T04:33:15.874Z,41.15
2023-02-24T04:35:49.057Z,41.41
2023-02-24T04:38:20.695Z,41.71
2023-02-24T04:40:53.356Z,41.42
2023-02-24T04:43:24.286Z,41.71
2023-02-24T04:45:56.156Z,41.28
2023-02-24T04:48:26.312Z,41.17
2023-02-24T04:50:57.069Z,41.16
2023-02-24T04:53:27.888Z,41.37
2023-02-24T04:56:08.978Z,41.61
2023-02-24T04:58:44.292Z,41.66
2023-02-24T05:01:15.272Z,41.54
2023-02-24T05:03:46.314Z,41.67
2023-02-24T05:06:19.031Z,41.70
2023-02-24T05:08:52.820Z,41.30
2023-02-24T05:11:25.448Z,41.30
2023-02-24T05:13:58.164Z,41.55
2023-02-24T05:16:31.400Z,41.26
2023-02-24T05:19:15.172Z,41.46
2023-02-24T05:21:45.668Z,41.71
2023-02-24T05:24:18.110Z,41.20
2023-02-24T05:26:58.602Z,41.67
2023-02-24T05:29:31.025Z,41.67
2023-02-24T05:32:03.144Z,41.65
2023-02-24T05:34:35.938Z,41.38
2023-02-24T05:37:11.415Z,41.33
2023-02-24T05:39:42.229Z,41.53
2023-02-24T05:42:14.488Z,41.92
2023-02-24T05:44:46.239Z,41.87
2023-02-24T05:47:20.237Z,41.33
2023-02-24T05:49:52.800Z,41.65
2023-02-24T05:52:23.494Z,41.64
2023-02-24T05:54:54.396Z,41.97
2023-02-24T05:57:33.221Z,41.74
2023-02-24T06:00:12.185Z,42.05
2023-02-24T06:02:49.929Z,41.79
2023-02-24T06:05:28.561Z,41.77
2023-02-24T06:08:05.679Z,42.43
2023-02-24T06:10:38.219Z,42.26
2023-02-24T06:13:10.954Z,42.92
2023-02-24T06:15:42.869Z,42.59
2023-02-24T06:18:13.103Z,42.70
2023-02-24T06:20:45.316Z,43.02
2023-02-24T06:23:17.475Z,42.85
2023-02-24T06:25:48.849Z,42.86
2023-02-24T06:28:22.891Z,43.00
2023-02-24T06:30:54.190Z,42.78
2023-02-24T06:33:26.859Z,43.06
2023-02-24T06:35:57.607Z,43.06
2023-02-24T06:38:29.435Z,43.18
2023-02-24T06:41:00.743Z,43.13
2023-02-24T06:43:34.083Z,42.98
2023-02-24T06:46:06.640Z,42.95
2023-02-24T06:48:38.548Z,43.31
2023-02-24T06:51:11.213Z,42.83
2023-02-24T06:53:44.354Z,42.95
2023-02-24T06:56:18.602Z,42.92
2023-02-24T06:58:52.674Z,42.68
2023-02-24T07:01:26.247Z,42.81
2023-02-24T07:04:18.259Z,42.54
2023-02-24T07:06:53.329Z,42.28
2023-02-24T07:09:27.648Z,42.60
2023-02-24T07:12:00.021Z,42.21
2023-02-24T07:14:34.114Z,42.42
2023-02-24T07:17:06.340Z,42.20
2023-02-24T07:19:37.782Z,41.96
2023-02-24T07:22:10.602Z,42.18
2023-02-24T07:24:46.691Z,42.01
2023-02-24T07:27:23.623Z,41.76
2023-02-24T07:29:56.242Z,41.92
2023-02-24T07:32:26.177Z,41.91
2023-02-24T07:34:56.403Z,42.00
2023-02-24T07:37:32.076Z,41.86
2023-02-24T07:40:03.053Z,41.65
2023-02-24T07:42:35.798Z,41.67
2023-02-24T07:45:10.881Z,41.68
2023-02-24T07:47:41.547Z,41.36
2023-02-24T07:50:14.668Z,41.27
2023-02-24T07:52:45.357Z,41.23
2023-02-24T07:55:16.224Z,40.90
2023-02-24T07:57:48.733Z,40.99
2023-02-24T08:00:28.606Z,40.59
2023-02-24T08:03:00.736Z,40.78
2023-02-24T08:05:31.512Z,40.58
2023-02-24T08:08:03.593Z,40.50
2023-02-24T08:10:37.586Z,40.36
2023-02-24T08:13:08.239Z,40.46
2023-02-24T08:15:40.558Z,40.28
2023-02-24T08:18:13.064Z,39.89
2023-02-24T08:20:53.248Z,39.87
2023-02-24T08:23:24.648Z,39.53
2023-02-24T08:25:54.757Z,39.60
2023-02-24T08:28:27.193Z,39.46
2023-02-24T08:30:59.635Z,39.25
2023-02-24T08:33:30.672Z,39.23
2023-02-24T08:36:03.685Z,39.27
2023-02-24T08:38:45.038Z,39.14
2023-02-24T08:41:21.786Z,39.43
2023-02-24T08:43:53.579Z,39.01
2023-02-24T08:46:33.283Z,39.08
2023-02-24T08:49:11.108Z,38.67
2023-02-24T08:51:44.458Z,38.76
2023-02-24T08:54:18.666Z,38.70
2023-02-24T08:56:56.470Z,38.96
2023-02-24T08:59:41.515Z,38.59
2023-02-24T09:02:24.593Z,38.60
2023-02-24T09:04:58.308Z,38.62
2023-02-24T09:07:35.806Z,38.22
2023-02-24T09:10:11.917Z,38.33
2023-02-24T09:12:43.256Z,37.90
2023-02-24T09:15:17.155Z,37.89
2023-02-24T09:18:01.698Z,38.02
2023-02-24T09:20:48.932Z,37.75
2023-02-24T09:23:30.226Z,37.68
2023-02-24T09:26:11.943Z,37.87
2023-02-24T09:28:55.175Z,37.78
2023-02-24T09:31:41.184Z,37.81
2023-02-24T09:34:18.937Z,37.90
2023-02-24T09:37:02.131Z,37.74
2023-02-24T09:39:56.949Z,37.81
2023-02-24T09:42:36.136Z,37.82
2023-02-24T09:45:15.052Z,37.77
2023-02-24T09:47:59.104Z,37.84
2023-02-24T09:51:02.135Z,37.63
2023-02-24T09:53:41.537Z,37.87
2023-02-24T09:56:24.304Z,37.89
2023-02-24T09:59:10.784Z,37.83
2023-02-24T10:01:50.420Z,37.74
2023-02-24T10:04:49.610Z,37.55
2023-02-24T10:07:29.976Z,37.64
2023-02-24T10:10:20.137Z,37.61
2023-02-24T10:12:58.840Z,37.45
2023-02-24T10:16:08.515Z,37.44
2023-02-24T10:18:48.941Z,37.43
2023-02-24T10:21:48.713Z,37.23
2023-02-24T10:24:31.236Z,37.18
2023-02-24T10:27:16.747Z,37.29
2023-02-24T10:30:06.349Z,37.18
2023-02-24T10:32:50.510Z,37.06
2023-02-24T10:35:26.329Z,36.98
2023-02-24T10:38:05.665Z,36.96
2023-02-24T10:40:57.066Z,36.93
2023-02-24T10:43:32.844Z,36.81
2023-02-24T10:46:18.647Z,36.77
2023-02-24T10:49:00.853Z,37.05
2023-02-24T10:51:40.935Z,36.88
2023-02-24T10:54:34.712Z,36.80
2023-02-24T10:57:39.464Z,36.76
2023-02-24T11:00:33.020Z,36.79
2023-02-24T11:03:22.174Z,36.59
2023-02-24T11:06:08.742Z,36.55
2023-02-24T11:08:54.822Z,36.57
2023-02-24T11:11:52.099Z,36.26
2023-02-24T11:14:41.782Z,36.38
2023-02-24T11:17:27.804Z,36.86
2023-02-24T11:20:11.368Z,36.73
2023-02-24T11:22:46.154Z,36.64
2023-02-24T11:25:25.336Z,36.80
2023-02-24T11:27:59.300Z,36.74
2023-02-24T11:30:46.622Z,36.82
2023-02-24T11:33:40.413Z,36.82
2023-02-24T11:36:23.107Z,37.10
2023-02-24T11:39:23.062Z,37.17
2023-02-24T11:41:59.812Z,37.10
2023-02-24T11:44:39.525Z,37.05
2023-02-24T11:47:19.888Z,36.95
2023-02-24T11:49:56.565Z,37.12
2023-02-24T11:52:36.550Z,36.98
2023-02-24T11:55:22.951Z,37.16
2023-02-24T11:58:02.012Z,37.42
2023-02-24T12:00:38.648Z,37.45
2023-02-24T12:03:26.071Z,36.94
2023-02-24T12:06:06.592Z,37.25
2023-02-24T12:08:41.748Z,36.95
2023-02-24T12:11:23.880Z,37.43
2023-02-24T12:14:08.456Z,37.46
2023-02-24T12:16:46.448Z,37.35
2023-02-24T12:19:26.403Z,37.38
2023-02-24T12:22:06.367Z,37.19
2023-02-24T12:24:42.648Z,37.56
2023-02-24T12:27:25.349Z,37.29
2023-02-24T12:30:29.485Z,37.77
2023-02-24T12:33:12.695Z,37.39
2023-02-24T12:35:59.082Z,37.68
2023-02-24T12:38:59.055Z,37.68
2023-02-24T12:41:45.670Z,37.88
2023-02-24T12:44:33.923Z,37.48
2023-02-24T12:47:14.345Z,37.82
2023-02-24T12:50:18.513Z,37.84
2023-02-24T12:53:04.065Z,37.69
2023-02-24T12:55:52.048Z,38.05
2023-02-24T12:58:27.632Z,37.83
2023-02-24T13:01:14.018Z,37.77
2023-02-24T13:04:02.695Z,37.56
2023-02-24T13:07:04.370Z,37.74
2023-02-24T13:09:51.583Z,37.83
2023-02-24T13:12:32.174Z,37.87
2023-02-24T13:15:02.981Z,37.67
2023-02-24T13:17:33.569Z,37.70
2023-02-24T13:20:17.451Z,37.69
2023-02-24T13:22:49.357Z,37.75
2023-02-24T13:25:31.619Z,37.53
2023-02-24T13:28:06.340Z,37.44
2023-02-24T13:30:45.239Z,37.34
2023-02-24T13:33:31.246Z,37.38
2023-02-24T13:36:27.582Z,37.33
2023-02-24T13:39:11.755Z,37.50
2023-02-24T13:41:45.079Z,37.25
2023-02-24T13:44:29.858Z,37.45
2023-02-24T13:47:33.472Z,37.64
2023-02-24T13:50:25.852Z,37.35
2023-02-24T13:53:40.857Z,37.49
2023-02-24T13:56:31.463Z,37.66
2023-02-24T13:59:22.844Z,37.53
2023-02-24T14:02:02.243Z,37.29
2023-02-24T14:04:35.354Z,37.36
2023-02-24T14:07:13.127Z,37.53
2023-02-24T14:09:51.535Z,37.26
2023-02-24T14:12:29.345Z,37.40
2023-02-24T14:15:02.914Z,37.36
2023-02-24T14:17:36.404Z,37.48
2023-02-24T14:20:22.369Z,37.45
2023-02-24T14:22:56.424Z,37.19
2023-02-24T14:25:29.792Z,37.77
2023-02-24T14:28:00.876Z,37.52
2023-02-24T14:30:39.352Z,37.46
2023-02-24T14:33:21.728Z,37.28
2023-02-24T14:35:53.181Z,37.28
2023-02-24T14:38:37.267Z,37.35
2023-02-24T14:41:19.668Z,37.37
2023-02-24T14:43:50.398Z,37.22
2023-02-24T14:46:23.259Z,37.60
2023-02-24T14:48:59.468Z,37.41
2023-02-24T14:51:36.397Z,37.42
2023-02-24T14:54:19.465Z,37.43
2023-02-24T14:56:49.643Z,37.59
2023-02-24T14:59:36.072Z,37.22
2023-02-24T15:02:19.993Z,37.32
2023-02-24T15:04:55.004Z,37.76
2023-02-24T15:07:34.660Z,37.32
2023-02-24T15:10:08.947Z,37.45
2023-02-24T15:12:51.052Z,37.43
2023-02-24T15:15:30.869Z,37.47
2023-02-24T15:18:12.577Z,37.11
2023-02-24T15:20:43.843Z,37.28
2023-02-24T15:23:34.009Z,37.40
2023-02-24T15:26:05.458Z,37.30
2023-02-24T15:28:38.164Z,37.30
2023-02-24T15:31:17.208Z,37.57
2023-02-24T15:34:00.352Z,37.58
2023-02-24T15:36:35.071Z,37.41
2023-02-24T15:39:11.062Z,37.60
2023-02-24T15:41:44.579Z,37.28
2023-02-24T15:44:29.502Z,37.34
2023-02-24T15:47:03.232Z,37.27
2023-02-24T15:49:35.761Z,37.51
2023-02-24T15:52:06.435Z,37.59
2023-02-24T15:54:42.831Z,37.49
2023-02-24T15:57:19.211Z,37.52
2023-02-24T15:59:50.184Z,37.25
2023-02-24T16:02:24.056Z,37.14
2023-02-24T16:04:56.089Z,37.70
2023-02-24T16:07:34.258Z,37.76
2023-02-24T16:10:09.276Z,37.54
2023-02-24T16:12:48.811Z,37.49
2023-02-24T16:15:25.887Z,37.33
2023-02-24T16:17:57.592Z,37.24
2023-02-24T16:20:34.669Z,37.20
2023-02-24T16:23:07.683Z,37.23
2023-02-24T16:25:44.402Z,37.24
2023-02-24T16:28:17.835Z,37.65
2023-02-24T16:30:49.431Z,37.27
2023-02-24T16:33:24.013Z,37.20
2023-02-24T16:35:57.456Z,37.51
2023-02-24T16:38:29.071Z,37.29
2023-02-24T16:40:59.313Z,37.13
2023-02-24T16:43:30.326Z,37.37
2023-02-24T16:46:07.191Z,37.37
2023-02-24T16:48:42.646Z,37.38
2023-02-24T16:51:15.773Z,37.70
2023-02-24T16:53:46.150Z,37.40
2023-02-24T16:56:18.447Z,37.67
2023-02-24T16:58:49.792Z,37.46
2023-02-24T17:01:24.383Z,37.74
2023-02-24T17:03:56.912Z,37.25
2023-02-24T17:06:29.434Z,37.34
2023-02-24T17:09:01.200Z,37.50
2023-02-24T17:11:32.140Z,37.52
2023-02-24T17:14:03.504Z,37.33
2023-02-24T17:16:34.365Z,37.35
2023-02-24T17:19:05.537Z,37.43
2023-02-24T17:21:38.069Z,37.75
2023-02-24T17:24:10.192Z,37.49
2023-02-24T17:26:40.814Z,37.56
2023-02-24T17:29:11.542Z,37.83
2023-02-24T17:31:43.661Z,37.61
2023-02-24T17:34:14.303Z,37.29
2023-02-24T17:36:48.002Z,37.51
2023-02-24T17:39:18.848Z,37.86
2023-02-24T17:41:49.126Z,37.60
2023-02-24T17:44:19.268Z,37.67
2023-02-24T17:46:50.508Z,37.41
2023-02-24T17:49:21.865Z,37.64
2023-02-24T17:51:54.011Z,37.72
2023-02-24T17:54:24.675Z,37.57
2023-02-24T17:56:54.926Z,37.55
2023-02-24T17:59:26.242Z,37.48
2023-02-24T18:01:57.448Z,37.64
2023-02-24T18:04:27.988Z,37.95
2023-02-24T18:07:00.506Z,37.50
2023-02-24T18:09:31.489Z,37.54
2023-02-24T18:12:02.620Z,38.00
2023-02-24T18:14:35.027Z,37.61
2023-02-24T18:17:05.452Z,37.51
2023-02-24T18:19:35.753Z,37.93
2023-02-24T18:22:08.404Z,38.17
2023-02-24T18:24:41.949Z,37.89
2023-02-24T18:27:12.597Z,37.86
2023-02-24T18:29:43.374Z,38.10
2023-02-24T18:32:15.364Z,37.94
2023-02-24T18:34:47.012Z,37.95
2023-02-24T18:37:19.111Z,37.78
2023-02-24T18:39:51.271Z,37.98
2023-02-24T18:42:22.029Z,37.62
2023-02-24T18:44:52.630Z,38.26
2023-02-24T18:47:22.782Z,37.98
2023-02-24T18:49:54.319Z,38.10
2023-02-24T18:52:26.595Z,38.09
2023-02-24T18:54:57.369Z,38.28
2023-02-24T18:57:28.474Z,38.12
2023-02-24T18:59:59.664Z,38.28
2023-02-24T19:02:30.706Z,38.19
2023-02-24T19:05:01.055Z,38.25
2023-02-24T19:07:34.154Z,38.13
2023-02-24T19:10:06.000Z,38.08
2023-02-24T19:12:36.815Z,38.14
2023-02-24T19:15:09.782Z,38.17
2023-02-24T19:17:40.768Z,38.20
2023-02-24T19:20:15.351Z,38.20
2023-02-24T19:22:50.483Z,38.18
2023-02-24T19:25:22.420Z,38.30
2023-02-24T19:27:55.424Z,38.24
2023-02-24T19:30:26.338Z,38.45
2023-02-24T19:32:59.465Z,38.12
2023-02-24T19:35:29.645Z,38.40
2023-02-24T19:38:02.893Z,38.14
2023-02-24T19:40:33.565Z,38.54
2023-02-24T19:43:04.317Z,38.29
2023-02-24T19:45:35.681Z,38.33
2023-02-24T19:48:06.472Z,38.21
2023-02-24T19:50:36.964Z,38.01
2023-02-24T19:53:09.955Z,38.30
2023-02-24T19:55:41.526Z,38.31
2023-02-24T19:58:12.294Z,38.26
2023-02-24T20:00:43.045Z,38.47
2023-02-24T20:03:14.251Z,38.33
2023-02-24T20:05:45.058Z,38.63
2023-02-24T20:08:18.065Z,38.47
2023-02-24T20:10:48.800Z,38.56
2023-02-24T20:13:19.582Z,38.43
2023-02-24T20:15:50.363Z,38.41
2023-02-24T20:18:20.380Z,38.28
2023-02-24T20:20:50.652Z,38.56
2023-02-24T20:23:23.229Z,38.71
2023-02-24T20:25:54.827Z,38.09
2023-02-24T20:28:25.256Z,38.47
2023-02-24T20:30:56.606Z,38.61
2023-02-24T20:33:27.297Z,38.14
2023-02-24T20:35:57.794Z,38.72
2023-02-24T20:38:31.060Z,38.37
2023-02-24T20:41:03.524Z,38.71
2023-02-24T20:43:34.950Z,38.60
2023-02-24T20:46:15.531Z,38.41
2023-02-24T20:48:47.040Z,38.28
2023-02-24T20:51:18.292Z,38.25
2023-02-24T20:53:57.362Z,38.42
2023-02-24T20:56:30.734Z,38.69
2023-02-24T20:59:04.018Z,38.63
2023-02-24T21:01:36.969Z,38.55
2023-02-24T21:04:08.982Z,38.82
2023-02-24T21:06:39.904Z,38.32
2023-02-24T21:09:14.335Z,38.53
2023-02-24T21:11:44.501Z,38.70
2023-02-24T21:14:17.975Z,38.18
2023-02-24T21:16:50.147Z,38.50
2023-02-24T21:19:21.579Z,38.32
2023-02-24T21:21:52.447Z,38.80
2023-02-24T21:24:25.554Z,38.65
2023-02-24T21:26:56.284Z,38.76
2023-02-24T21:29:26.980Z,38.61
2023-02-24T21:31:58.646Z,38.95
2023-02-24T21:34:28.946Z,38.75
2023-02-24T21:37:01.826Z,38.56
2023-02-24T21:39:34.183Z,38.28
2023-02-24T21:42:04.682Z,38.76
2023-02-24T21:44:35.927Z,38.39
2023-02-24T21:47:07.638Z,38.58
2023-02-24T21:49:39.397Z,38.37
2023-02-24T21:52:12.387Z,38.75
2023-02-24T21:54:44.653Z,38.70
2023-02-24T21:57:15.851Z,38.65
2023-02-24T21:59:46.913Z,38.77
2023-02-24T22:02:18.024Z,38.94
2023-02-24T22:04:48.640Z,38.74
2023-02-24T22:07:19.226Z,38.84
2023-02-24T22:09:54.170Z,39.01
2023-02-24T22:12:25.116Z,38.63
2023-02-24T22:14:55.329Z,38.67
2023-02-24T22:17:25.864Z,38.69
2023-02-24T22:19:58.205Z,38.48
2023-02-24T22:22:29.448Z,38.63
2023-02-24T22:25:03.274Z,39.10
2023-02-24T22:27:34.732Z,38.80
2023-02-24T22:30:05.950Z,38.77
2023-02-24T22:32:38.590Z,38.86
2023-02-24T22:35:10.116Z,38.70
2023-02-24T22:37:40.287Z,38.81
2023-02-24T22:40:14.839Z,38.75
2023-02-24T22:42:45.161Z,39.18
2023-02-24T22:45:15.697Z,38.74
2023-02-24T22:47:48.170Z,38.51
2023-02-24T22:50:19.890Z,38.96
2023-02-24T22:52:51.116Z,38.87
2023-02-24T22:55:25.514Z,38.52
2023-02-24T22:57:55.588Z,38.73
2023-02-24T23:00:26.818Z,39.03
2023-02-24T23:02:57.980Z,38.75
2023-02-24T23:05:29.689Z,38.71
2023-02-24T23:08:03.996Z,38.68
2023-02-24T23:10:37.346Z,38.75
2023-02-24T23:13:08.573Z,38.91
2023-02-24T23:15:41.597Z,38.78
2023-02-24T23:18:12.963Z,38.96
2023-02-24T23:20:45.173Z,38.84
2023-02-24T23:23:16.368Z,38.92
2023-02-24T23:25:54.683Z,38.89
2023-02-24T23:28:25.623Z,39.23
2023-02-24T23:30:58.234Z,39.40
2023-02-24T23:33:29.436Z,39.34
2023-02-24T23:36:06.056Z,39.17
2023-02-24T23:38:36.925Z,39.14
2023-02-24T23:41:14.918Z,39.04
2023-02-24T23:43:46.840Z,38.99
2023-02-24T23:46:18.285Z,38.93
2023-02-24T23:48:48.381Z,39.54
2023-02-24T23:51:19.554Z,39.49
2023-02-24T23:53:50.291Z,39.09
2023-02-24T23:56:26.272Z,39.19
2023-02-24T23:59:00.258Z,39.13
